Time;durP1;ratioP1;P1;durP2;ratioP2;P2;SDS_P1;SDS_P2;PMS_P1;PMS_P2;Temp;Humidity;BMP_temperature;BMP_pressure;BME280_temperature;BME280_humidity;BME280_pressure;Samples;Min_cycle;Max_cycle;Signal;HPM_P1;HPM_P2
2021/12/27 00:00:08;;;;;;;;;;;12.10;99.90;;;;;;6278602;22;19903;-93
2021/12/27 00:02:34;;;;;;;;;;;12.10;99.90;;;;;;6278854;22;19903;-92
2021/12/27 00:05:00;;;;;;;;;;;12.10;99.90;;;;;;6277656;22;20246;-91
2021/12/27 00:07:25;;;;;;;;;;;12.10;99.90;;;;;;6277583;22;19985;-94
2021/12/27 00:09:51;;;;;;;;;;;12.10;99.90;;;;;;6277925;22;19903;-93
2021/12/27 00:12:17;;;;;;;;;;;12.10;99.90;;;;;;6277436;22;19907;-92
2021/12/27 00:14:45;;;;;;;;;;;12.10;99.90;;;;;;6277550;22;19946;-92
2021/12/27 00:17:10;;;;;;;;;;;12.10;99.90;;;;;;6278008;22;20251;-92
2021/12/27 00:19:36;;;;;;;;;;;12.10;99.90;;;;;;6278674;22;20331;-92
2021/12/27 00:22:02;;;;;;;;;;;12.20;99.90;;;;;;6277961;22;19910;-92
2021/12/27 00:24:29;;;;;;;;;;;12.10;99.90;;;;;;6277327;22;20255;-91
2021/12/27 00:26:55;;;;;;;;;;;12.10;99.90;;;;;;6277538;22;19911;-91
2021/12/27 00:29:21;;;;;;;;;;;12.10;99.90;;;;;;6277720;22;19988;-92
2021/12/27 00:31:47;;;;;;;;;;;12.00;99.90;;;;;;6277668;22;19903;-94
2021/12/27 00:34:13;;;;;;;;;;;12.00;99.90;;;;;;6277522;22;19903;-94
2021/12/27 00:36:38;;;;;;;;;;;12.00;99.90;;;;;;6278479;22;19914;-94
2021/12/27 00:39:06;;;;;;;;;;;12.00;99.90;;;;;;6304876;22;19903;-93
2021/12/27 00:41:32;;;;;;;;;;;12.00;99.90;;;;;;6277865;22;19902;-92
2021/12/27 00:43:57;;;;;;;;;;;12.00;99.90;;;;;;6277978;22;19986;-93
2021/12/27 00:46:23;;;;;;;;;;;12.00;99.90;;;;;;6304724;22;19910;-93
2021/12/27 00:48:48;;;;;;;;;;;12.00;99.90;;;;;;6277381;22;19982;-92
2021/12/27 00:51:14;;;;;;;;;;;11.90;99.90;;;;;;6277689;22;19903;-92
2021/12/27 00:53:43;;;;;;;;;;;11.90;99.90;;;;;;6278704;22;19918;-93
2021/12/27 00:56:08;;;;;;;;;;;11.90;99.90;;;;;;6278382;22;19922;-94
2021/12/27 00:58:34;;;;;;;;;;;11.90;99.90;;;;;;6279245;22;20319;-93
2021/12/27 01:01:01;;;;;;;;;;;11.90;99.90;;;;;;6279760;22;19927;-93
2021/12/27 01:03:29;;;;;;;;;;;11.90;99.90;;;;;;6281410;22;19903;-93
2021/12/27 01:05:55;;;;;;;;;;;11.90;99.90;;;;;;6281890;22;19983;-93
2021/12/27 01:08:25;;;;;;;;;;;11.90;99.90;;;;;;6280814;22;19903;-93
2021/12/27 01:11:11;;;;;;;;;;;11.90;99.90;;;;;;6281531;22;19951;-95
2021/12/27 01:13:47;;;;;;;;;;;11.80;99.90;;;;;;6280601;22;19948;-94
2021/12/27 01:16:14;;;;;;;;;;;11.80;99.90;;;;;;6279951;22;20350;-93
2021/12/27 01:18:47;;;;;;;;;;;11.80;99.90;;;;;;6280696;22;19903;-93
2021/12/27 01:21:21;;;;;;;;;;;11.70;99.90;;;;;;6280369;22;19909;-93
2021/12/27 01:23:50;;;;;;;;;;;11.70;99.90;;;;;;6280080;22;20328;-93
2021/12/27 01:26:29;;;;;;;;;;;;;;;;;;;;;
2021/12/27 01:28:57;;;;;;;;;;;11.70;99.90;;;;;;6309281;22;20427;-93
2021/12/27 01:31:28;;;;;;;;;;;11.70;99.90;;;;;;6281864;22;19903;-92
2021/12/27 01:34:03;;;;;;;;;;;11.70;99.90;;;;;;6283932;22;19903;-94
2021/12/27 01:36:41;;;;;;;;;;;;;;;;;;;;;
2021/12/27 01:39:07;;;;;;;;;;;11.70;99.90;;;;;;6309492;22;19943;-92
2021/12/27 01:41:35;;;;;;;;;;;11.70;99.90;;;;;;6281503;22;19914;-94
2021/12/27 01:44:01;;;;;;;;;;;11.70;99.90;;;;;;6281517;22;19903;-94
2021/12/27 01:46:28;;;;;;;;;;;11.60;99.90;;;;;;6282839;22;19910;-95
2021/12/27 01:48:55;;;;;;;;;;;11.70;99.90;;;;;;6284607;22;19910;-93
2021/12/27 01:51:23;;;;;;;;;;;11.70;99.90;;;;;;6284153;22;19903;-94
2021/12/27 01:53:52;;;;;;;;;;;11.70;99.90;;;;;;6285834;22;19903;-92
2021/12/27 01:56:20;;;;;;;;;;;11.60;99.90;;;;;;6285566;22;19911;-95
2021/12/27 01:58:49;;;;;;;;;;;11.60;99.90;;;;;;6285509;22;19902;-92
2021/12/27 02:01:18;;;;;;;;;;;11.70;99.90;;;;;;6285270;22;20290;-91
2021/12/27 02:03:46;;;;;;;;;;;11.70;99.90;;;;;;6283385;22;19909;-94
2021/12/27 02:06:15;;;;;;;;;;;11.70;99.90;;;;;;6281101;22;19957;-93
2021/12/27 02:08:44;;;;;;;;;;;11.70;99.90;;;;;;6280886;22;20350;-94
2021/12/27 02:11:11;;;;;;;;;;;11.70;99.90;;;;;;6281075;22;19909;-93
2021/12/27 02:13:42;;;;;;;;;;;11.60;99.90;;;;;;6279320;22;19974;-93
2021/12/27 02:16:08;;;;;;;;;;;11.70;99.90;;;;;;6279456;22;19911;-94
2021/12/27 02:18:34;;;;;;;;;;;11.70;99.90;;;;;;6279834;22;19964;-92
2021/12/27 02:20:59;;;;;;;;;;;11.70;99.90;;;;;;6280823;22;19903;-94
2021/12/27 02:23:38;;;;;;;;;;;11.60;99.90;;;;;;6279347;22;20331;-94
2021/12/27 02:26:07;;;;;;;;;;;11.70;99.90;;;;;;6289245;22;20331;-93
2021/12/27 02:28:36;;;;;;;;;;;11.70;99.90;;;;;;6288801;22;19903;-92
2021/12/27 02:31:20;;;;;;;;;;;11.70;99.90;;;;;;6280445;22;19935;-92
2021/12/27 02:33:48;;;;;;;;;;;11.60;99.90;;;;;;6279532;22;19938;-93
2021/12/27 02:36:13;;;;;;;;;;;11.60;99.90;;;;;;6279328;22;19993;-92
2021/12/27 02:38:43;;;;;;;;;;;11.70;99.90;;;;;;6278584;22;19903;-91
2021/12/27 02:41:10;;;;;;;;;;;11.70;99.90;;;;;;6278381;22;19956;-91
2021/12/27 02:43:38;;;;;;;;;;;11.70;99.90;;;;;;6278319;22;19937;-92
2021/12/27 02:46:07;;;;;;;;;;;11.70;99.90;;;;;;6278277;22;19939;-92
2021/12/27 02:48:37;;;;;;;;;;;11.70;99.90;;;;;;6278495;22;19955;-94
2021/12/27 02:51:03;;;;;;;;;;;11.70;99.90;;;;;;6277985;22;20327;-94
2021/12/27 02:53:29;;;;;;;;;;;11.70;99.90;;;;;;6278000;22;19903;-93
2021/12/27 02:55:55;;;;;;;;;;;11.70;99.90;;;;;;6278012;22;19919;-92
2021/12/27 02:58:22;;;;;;;;;;;11.70;99.90;;;;;;6278253;22;19909;-91
2021/12/27 03:01:00;;;;;;;;;;;11.70;99.90;;;;;;6278754;22;19926;-92
2021/12/27 03:03:34;;;;;;;;;;;11.70;99.90;;;;;;6278349;22;19926;-93
2021/12/27 03:05:59;;;;;;;;;;;11.70;99.90;;;;;;6277984;22;19956;-92
2021/12/27 03:08:26;;;;;;;;;;;11.70;99.90;;;;;;6278437;22;19942;-91
2021/12/27 03:10:53;;;;;;;;;;;11.70;99.90;;;;;;6278383;22;19909;-90
2021/12/27 03:13:22;;;;;;;;;;;11.70;99.90;;;;;;6278113;22;19989;-91
2021/12/27 03:15:57;;;;;;;;;;;11.70;99.90;;;;;;6278735;22;19911;-91
2021/12/27 03:18:23;;;;;;;;;;;11.70;99.90;;;;;;6277901;22;20279;-92
2021/12/27 03:20:49;;;;;;;;;;;11.60;99.90;;;;;;6278401;22;19942;-91
2021/12/27 03:23:15;;;;;;;;;;;11.70;99.90;;;;;;6278828;22;19932;-93
2021/12/27 03:25:41;;;;;;;;;;;11.70;99.90;;;;;;6305212;22;19910;-92
2021/12/27 03:28:06;;;;;;;;;;;11.70;99.90;;;;;;6278025;22;19931;-92
2021/12/27 03:30:37;;;;;;;;;;;11.60;99.90;;;;;;6277904;22;19910;-93
2021/12/27 03:33:05;;;;;;;;;;;11.60;99.90;;;;;;6277733;22;19903;-94
2021/12/27 03:35:36;;;;;;;;;;;11.70;99.90;;;;;;6277495;22;19911;-91
2021/12/27 03:38:16;;;;;;;;;;;11.60;99.90;;;;;;6277885;22;19903;-93
2021/12/27 03:40:51;;;;;;;;;;;;;;;;;;;;;
2021/12/27 03:43:27;;;;;;;;;;;11.60;99.90;;;;;;6305984;22;19974;-93
2021/12/27 03:46:00;;;;;;;;;;;11.60;99.90;;;;;;6277806;22;19903;-93
2021/12/27 03:48:50;;;;;;;;;;;11.70;99.90;;;;;;6278092;22;19903;-93
2021/12/27 03:51:23;;;;;;;;;;;11.60;99.90;;;;;;6278500;22;20323;-94
2021/12/27 03:53:52;;;;;;;;;;;11.60;99.90;;;;;;6278309;22;19914;-92
2021/12/27 03:56:22;;;;;;;;;;;11.60;99.90;;;;;;6278220;22;19917;-93
2021/12/27 03:59:18;;;;;;;;;;;11.60;99.90;;;;;;6279158;22;19907;-92
2021/12/27 04:01:45;;;;;;;;;;;11.60;99.90;;;;;;6304747;22;20220;-93
2021/12/27 04:04:10;;;;;;;;;;;11.50;99.90;;;;;;6277504;22;20048;-93
2021/12/27 04:06:36;;;;;;;;;;;11.60;99.90;;;;;;6277629;22;19903;-93
2021/12/27 04:09:20;;;;;;;;;;;11.60;99.90;;;;;;6277880;22;19903;-93
2021/12/27 04:11:45;;;;;;;;;;;11.50;99.90;;;;;;6277551;22;19903;-92
2021/12/27 04:14:11;;;;;;;;;;;11.60;99.90;;;;;;6277994;22;20104;-92
2021/12/27 04:16:39;;;;;;;;;;;11.50;99.90;;;;;;6277178;22;19911;-91
2021/12/27 04:19:07;;;;;;;;;;;11.50;99.90;;;;;;6304635;22;19907;-93
2021/12/27 04:21:35;;;;;;;;;;;11.50;99.90;;;;;;6277555;22;19937;-93
2021/12/27 04:24:01;;;;;;;;;;;11.50;99.90;;;;;;6277852;22;19903;-91
2021/12/27 04:26:26;;;;;;;;;;;11.50;99.90;;;;;;6277445;22;19991;-93
2021/12/27 04:28:52;;;;;;;;;;;11.50;99.90;;;;;;6278087;22;20236;-92
2021/12/27 04:31:18;;;;;;;;;;;11.50;99.90;;;;;;6278513;22;19942;-92
2021/12/27 04:33:44;;;;;;;;;;;11.50;99.90;;;;;;6279451;22;19910;-93
2021/12/27 04:36:10;;;;;;;;;;;11.50;99.90;;;;;;6279880;22;19964;-93
2021/12/27 04:38:36;;;;;;;;;;;11.50;99.90;;;;;;6279451;22;19903;-93
2021/12/27 04:41:02;;;;;;;;;;;11.50;99.90;;;;;;6279527;22;19910;-92
2021/12/27 04:43:27;;;;;;;;;;;11.50;99.90;;;;;;6280157;22;19903;-91
2021/12/27 04:45:53;;;;;;;;;;;11.50;99.90;;;;;;6280120;22;19903;-92
2021/12/27 04:48:20;;;;;;;;;;;11.50;99.90;;;;;;6280432;22;19914;-94
2021/12/27 04:50:45;;;;;;;;;;;11.50;99.90;;;;;;6280059;22;20341;-92
2021/12/27 04:53:11;;;;;;;;;;;11.50;99.90;;;;;;6279898;22;19903;-93
2021/12/27 04:55:39;;;;;;;;;;;11.50;99.90;;;;;;6280031;22;19910;-91
2021/12/27 04:58:08;;;;;;;;;;;11.50;99.90;;;;;;6279736;22;19985;-92
2021/12/27 05:00:33;;;;;;;;;;;11.50;99.90;;;;;;6281945;22;19903;-92
2021/12/27 05:02:59;;;;;;;;;;;11.50;99.90;;;;;;6281583;22;19941;-94
2021/12/27 05:05:25;;;;;;;;;;;11.50;99.90;;;;;;6279622;22;19970;-92
2021/12/27 05:07:53;;;;;;;;;;;11.50;99.90;;;;;;6279993;22;19903;-92
2021/12/27 05:10:21;;;;;;;;;;;11.50;99.90;;;;;;6279017;22;19956;-93
2021/12/27 05:12:49;;;;;;;;;;;11.50;99.90;;;;;;6279115;22;19909;-92
2021/12/27 05:15:25;;;;;;;;;;;11.50;99.90;;;;;;6278976;22;19911;-91
2021/12/27 05:17:53;;;;;;;;;;;11.50;99.90;;;;;;6279722;22;19903;-93
2021/12/27 05:23:07;;;;;;;;;;;11.40;99.90;;;;;;6289745;22;19903;-93
2021/12/27 05:25:38;;;;;;;;;;;11.50;99.90;;;;;;6278857;22;19910;-94
2021/12/27 05:28:04;;;;;;;;;;;11.50;99.90;;;;;;6278211;22;20224;-92
2021/12/27 05:30:29;;;;;;;;;;;11.50;99.90;;;;;;6305999;22;19933;-92
2021/12/27 05:32:57;;;;;;;;;;;11.50;99.90;;;;;;6279434;22;19903;-92
2021/12/27 05:35:23;;;;;;;;;;;11.40;99.90;;;;;;6279135;22;19986;-92
2021/12/27 05:37:49;;;;;;;;;;;11.50;99.90;;;;;;6278409;22;19907;-91
2021/12/27 05:40:22;;;;;;;;;;;11.60;99.90;;;;;;6278391;22;19930;-92
2021/12/27 05:42:49;;;;;;;;;;;11.60;99.90;;;;;;6273469;22;19952;-94
2021/12/27 05:45:16;;;;;;;;;;;11.60;99.90;;;;;;6277579;22;20161;-92
2021/12/27 05:47:41;;;;;;;;;;;11.60;99.90;;;;;;6278504;22;19910;-92
2021/12/27 05:50:10;;;;;;;;;;;11.60;99.90;;;;;;6305209;22;19903;-92
2021/12/27 05:52:38;;;;;;;;;;;11.60;99.90;;;;;;6277935;22;19910;-92
2021/12/27 05:55:05;;;;;;;;;;;11.70;99.90;;;;;;6278114;22;19918;-93
2021/12/27 05:57:30;;;;;;;;;;;11.60;99.90;;;;;;6278057;22;19903;-91
2021/12/27 05:59:57;;;;;;;;;;;11.70;99.90;;;;;;6278956;22;19903;-92
2021/12/27 06:02:25;;;;;;;;;;;11.70;99.90;;;;;;6279700;22;19903;-93
2021/12/27 06:04:53;;;;;;;;;;;11.70;99.90;;;;;;6278383;22;19903;-93
2021/12/27 06:07:19;;;;;;;;;;;11.70;99.90;;;;;;6278980;22;19907;-93
2021/12/27 06:09:44;;;;;;;;;;;11.70;99.90;;;;;;6279609;22;20092;-91
2021/12/27 06:12:10;;;;;;;;;;;11.70;99.90;;;;;;6314082;22;19911;-93
2021/12/27 06:14:38;;;;;;;;;;;11.80;99.90;;;;;;6283130;22;19906;-92
2021/12/27 06:17:03;;;;;;;;;;;11.70;99.90;;;;;;6278008;22;19956;-91
2021/12/27 06:19:29;;;;;;;;;;;11.70;99.90;;;;;;6277688;22;19907;-92
2021/12/27 06:21:57;;;;;;;;;;;11.70;99.90;;;;;;6278744;22;19910;-92
2021/12/27 06:24:25;;;;;;;;;;;11.80;99.90;;;;;;6278732;22;20231;-92
2021/12/27 06:26:51;;;;;;;;;;;11.80;99.90;;;;;;6278143;22;19903;-92
2021/12/27 06:29:17;;;;;;;;;;;11.80;99.90;;;;;;6278160;22;19953;-92
2021/12/27 06:31:42;;;;;;;;;;;11.80;99.90;;;;;;6278313;22;20242;-93
2021/12/27 06:34:08;;;;;;;;;;;11.80;99.90;;;;;;6278433;22;19948;-92
2021/12/27 06:36:36;;;;;;;;;;;11.80;99.90;;;;;;6278929;22;19918;-92
2021/12/27 06:39:08;;;;;;;;;;;11.80;99.90;;;;;;6279485;22;19910;-92
2021/12/27 06:41:44;;;;;;;;;;;11.80;99.90;;;;;;6278104;22;19910;-94
2021/12/27 06:44:09;;;;;;;;;;;11.80;99.90;;;;;;6278093;22;20242;-92
2021/12/27 06:46:42;;;;;;;;;;;11.80;99.90;;;;;;6279048;22;20319;-94
2021/12/27 06:49:08;;;;;;;;;;;11.80;99.90;;;;;;6278902;22;19910;-92
2021/12/27 06:51:36;;;;;;;;;;;11.80;99.90;;;;;;6278106;22;19903;-92
2021/12/27 06:54:02;;;;;;;;;;;11.70;99.90;;;;;;6277719;22;20240;-93
2021/12/27 06:56:30;;;;;;;;;;;11.70;99.90;;;;;;6278125;22;19954;-93
2021/12/27 06:58:56;;;;;;;;;;;11.70;99.90;;;;;;6278804;22;20302;-93
2021/12/27 07:01:21;;;;;;;;;;;11.60;99.90;;;;;;6277890;22;19903;-93
2021/12/27 07:03:49;;;;;;;;;;;11.60;99.90;;;;;;6277907;22;19963;-92
2021/12/27 07:06:32;;;;;;;;;;;11.50;99.90;;;;;;6278173;22;20221;-93
2021/12/27 07:09:08;;;;;;;;;;;11.40;99.90;;;;;;6279996;22;19910;-94
2021/12/27 07:11:36;;;;;;;;;;;11.40;99.90;;;;;;6288407;22;19903;-92
2021/12/27 07:14:02;;;;;;;;;;;11.40;99.90;;;;;;6280351;22;19906;-93
2021/12/27 07:16:30;;;;;;;;;;;11.30;99.90;;;;;;6278729;22;19910;-93
2021/12/27 07:18:59;;;;;;;;;;;11.30;99.90;;;;;;6278891;22;19903;-93
2021/12/27 07:21:45;;;;;;;;;;;11.30;99.90;;;;;;6279040;22;19903;-93
2021/12/27 07:24:13;;;;;;;;;;;11.30;99.90;;;;;;6278564;22;19982;-93
2021/12/27 07:27:06;;;;;;;;;;;11.30;99.90;;;;;;6277952;22;19911;-93
2021/12/27 07:29:34;;;;;;;;;;;11.40;99.90;;;;;;6278269;22;19902;-92
2021/12/27 07:31:59;;;;;;;;;;;11.30;99.90;;;;;;6278923;22;20282;-94
2021/12/27 07:34:48;;;;;;;;;;;11.30;99.90;;;;;;6278780;22;19903;-92
2021/12/27 07:37:15;;;;;;;;;;;11.30;99.90;;;;;;6281417;22;19918;-92
2021/12/27 07:39:42;;;;;;;;;;;11.30;99.90;;;;;;6278710;22;19903;-92
2021/12/27 07:42:08;;;;;;;;;;;11.40;99.90;;;;;;6278285;22;19903;-91
2021/12/27 07:44:33;;;;;;;;;;;11.40;99.90;;;;;;6278334;22;19961;-93
2021/12/27 07:46:59;;;;;;;;;;;11.50;99.90;;;;;;6278675;22;19952;-92
2021/12/27 07:49:25;;;;;;;;;;;11.60;99.90;;;;;;6278151;22;19974;-93
2021/12/27 07:51:50;;;;;;;;;;;11.60;99.90;;;;;;6277292;22;19903;-93
2021/12/27 07:54:16;;;;;;;;;;;11.70;99.90;;;;;;6278446;22;20208;-92
2021/12/27 07:56:41;;;;;;;;;;;11.70;99.90;;;;;;6277325;22;19918;-92
2021/12/27 07:59:09;;;;;;;;;;;11.80;99.90;;;;;;6276060;22;19903;-92
2021/12/27 08:01:35;;;;;;;;;;;11.80;99.90;;;;;;6276423;22;19961;-93
2021/12/27 08:04:02;;;;;;;;;;;11.90;99.90;;;;;;6278016;22;19903;-93
2021/12/27 08:06:28;;;;;;;;;;;11.90;99.90;;;;;;6276671;22;20029;-91
2021/12/27 08:08:54;;;;;;;;;;;11.90;99.90;;;;;;6277110;22;20716;-91
2021/12/27 08:11:19;;;;;;;;;;;12.00;99.90;;;;;;6276610;22;19907;-92
2021/12/27 08:13:45;;;;;;;;;;;12.00;99.90;;;;;;6277115;22;20345;-93
2021/12/27 08:16:11;;;;;;;;;;;12.10;99.90;;;;;;6277298;22;19911;-92
2021/12/27 08:18:37;;;;;;;;;;;12.10;99.90;;;;;;6277658;22;19907;-94
2021/12/27 08:21:03;;;;;;;;;;;12.10;99.90;;;;;;6277606;22;19902;-93
2021/12/27 08:23:28;;;;;;;;;;;12.10;99.90;;;;;;6277624;22;19903;-91
2021/12/27 08:25:54;;;;;;;;;;;12.00;99.90;;;;;;6304158;22;19954;-92
2021/12/27 08:28:20;;;;;;;;;;;12.00;99.90;;;;;;6276266;22;20432;-93
2021/12/27 08:30:45;;;;;;;;;;;12.00;99.90;;;;;;6276514;22;19949;-91
2021/12/27 08:33:11;;;;;;;;;;;11.90;99.90;;;;;;6277264;22;20282;-92
2021/12/27 08:35:37;;;;;;;;;;;11.90;99.90;;;;;;6305516;22;19986;-93
2021/12/27 08:38:02;;;;;;;;;;;11.90;99.90;;;;;;6280274;22;19935;-91
2021/12/27 08:40:28;;;;;;;;;;;11.90;99.90;;;;;;6306515;22;19903;-91
2021/12/27 08:42:54;;;;;;;;;;;12.00;99.90;;;;;;6287816;22;19962;-91
2021/12/27 08:45:20;;;;;;;;;;;12.00;99.90;;;;;;6306524;22;19931;-91
2021/12/27 08:47:47;;;;;;;;;;;12.00;99.90;;;;;;6326713;22;19914;-95
2021/12/27 08:50:17;;;;;;;;;;;12.00;99.90;;;;;;6309047;22;19903;-92
2021/12/27 08:52:43;;;;;;;;;;;12.00;99.90;;;;;;6282521;22;19903;-93
2021/12/27 08:55:08;;;;;;;;;;;12.00;99.90;;;;;;6283648;22;20354;-92
2021/12/27 08:57:34;;;;;;;;;;;11.90;99.90;;;;;;6282735;22;19903;-92
2021/12/27 09:00:00;;;;;;;;;;;12.00;99.90;;;;;;6280387;22;19903;-92
2021/12/27 09:02:26;;;;;;;;;;;12.10;99.90;;;;;;6281573;22;20098;-91
2021/12/27 09:04:51;;;;;;;;;;;12.10;99.90;;;;;;6282127;22;19903;-91
2021/12/27 09:07:18;;;;;;;;;;;12.20;99.90;;;;;;6283171;22;19943;-92
2021/12/27 09:09:44;;;;;;;;;;;12.10;99.90;;;;;;6309981;22;19903;-91
2021/12/27 09:12:10;;;;;;;;;;;12.20;99.90;;;;;;6284371;22;19903;-93
2021/12/27 09:14:39;;;;;;;;;;;12.20;99.90;;;;;;6287907;22;19951;-91
2021/12/27 09:17:05;;;;;;;;;;;12.20;99.90;;;;;;6288190;22;19907;-91
2021/12/27 09:19:33;;;;;;;;;;;12.30;99.90;;;;;;6288971;22;19903;-91
2021/12/27 09:22:00;;;;;;;;;;;12.30;99.90;;;;;;6290202;22;19907;-91
2021/12/27 09:24:26;;;;;;;;;;;12.30;99.90;;;;;;6314188;22;19903;-92
2021/12/27 09:27:02;;;;;;;;;;;12.30;99.90;;;;;;6288599;22;20295;-93
2021/12/27 09:29:34;;;;;;;;;;;12.50;99.90;;;;;;6283437;22;21798;-93
2021/12/27 09:32:50;;;;;;;;;;;;;;;;;;;;;
2021/12/27 10:14:16;;;;;;;;;;;13.10;99.90;;;;;;6222721;22;2057860;-90
2021/12/27 10:16:42;;;;;;;;;;;13.10;99.90;;;;;;6311064;22;20335;-88
2021/12/27 10:19:08;;;;;;;;;;;13.10;99.90;;;;;;6312153;22;19910;-88
2021/12/27 10:21:34;;;;;;;;;;;13.30;99.90;;;;;;6314587;22;19925;-88
2021/12/27 10:24:02;;;;;;;;;;;13.30;99.90;;;;;;6315677;22;19907;-91
2021/12/27 10:26:28;;;;;;;;;;;13.30;99.90;;;;;;6313370;22;19903;-90
2021/12/27 10:29:06;;;;;;;;;;;13.30;99.90;;;;;;6312699;22;19954;-93
2021/12/27 10:31:50;;;;;;;;;;;13.30;99.90;;;;;;6311176;22;20393;-89
2021/12/27 10:34:16;;;;;;;;;;;13.40;99.90;;;;;;6312574;22;20375;-90
2021/12/27 10:36:57;;;;;;;;;;;13.30;99.90;;;;;;6311595;22;19903;-89
2021/12/27 10:39:23;;;;;;;;;;;13.30;99.90;;;;;;6311069;22;19903;-89
2021/12/27 10:41:48;;;;;;;;;;;13.40;99.90;;;;;;6312792;22;19913;-91
2021/12/27 10:44:14;;;;;;;;;;;13.30;99.90;;;;;;6311672;22;19953;-92
2021/12/27 10:46:39;;;;;;;;;;;13.40;99.90;;;;;;6311970;22;19910;-90
2021/12/27 10:49:05;;;;;;;;;;;13.40;99.90;;;;;;6312866;22;19914;-90
2021/12/27 10:51:30;;;;;;;;;;;13.50;99.90;;;;;;6312573;22;20149;-87
2021/12/27 10:53:58;;;;;;;;;;;13.50;99.90;;;;;;6310849;22;19907;-88
2021/12/27 10:56:24;;;;;;;;;;;13.50;99.90;;;;;;6311256;22;20290;-89
2021/12/27 10:58:51;;;;;;;;;;;13.60;99.90;;;;;;6311267;22;20243;-90
2021/12/27 11:01:19;;;;;;;;;;;13.60;99.90;;;;;;6310772;22;19951;-89
2021/12/27 11:03:49;;;;;;;;;;;13.60;99.90;;;;;;6309274;22;19957;-90
2021/12/27 11:06:19;;;;;;;;;;;13.60;99.90;;;;;;6306169;22;20328;-89
2021/12/27 11:08:46;;;;;;;;;;;13.50;99.90;;;;;;6305717;22;19930;-89
2021/12/27 11:11:13;;;;;;;;;;;13.50;99.90;;;;;;6306723;22;19910;-90
2021/12/27 11:13:39;;;;;;;;;;;13.40;99.90;;;;;;6322278;22;19903;-90
2021/12/27 11:16:05;;;;;;;;;;;13.40;99.90;;;;;;6333780;22;19891;-90
2021/12/27 11:18:30;;;;;;;;;;;13.40;99.90;;;;;;6333590;22;19915;-91
2021/12/27 11:20:59;;;;;;;;;;;13.40;99.90;;;;;;6328617;22;19913;-89
2021/12/27 11:23:26;;;;;;;;;;;13.40;99.90;;;;;;6319191;22;19910;-93
2021/12/27 11:26:02;;;;;;;;;;;13.40;99.90;;;;;;6306445;22;19953;-93
2021/12/27 11:28:29;;;;;;;;;;;13.40;99.90;;;;;;6305649;22;19903;-92
2021/12/27 11:30:56;;;;;;;;;;;13.40;99.90;;;;;;6305089;22;19910;-91
2021/12/27 11:33:22;;;;;;;;;;;13.40;99.90;;;;;;6304778;22;19911;-91
2021/12/27 11:35:51;;;;;;;;;;;13.40;99.90;;;;;;6304833;22;19910;-92
2021/12/27 11:38:27;;;;;;;;;;;13.40;99.90;;;;;;6305176;22;19925;-92
2021/12/27 11:40:53;;;;;;;;;;;13.50;99.90;;;;;;6304310;22;19910;-90
2021/12/27 11:43:18;;;;;;;;;;;13.50;99.90;;;;;;6304643;22;19907;-90
2021/12/27 11:45:51;;;;;;;;;;;13.60;99.90;;;;;;6305081;22;20282;-89
2021/12/27 11:48:21;;;;;;;;;;;13.80;99.90;;;;;;6305215;22;19903;-90
2021/12/27 11:50:56;;;;;;;;;;;13.80;99.90;;;;;;6304633;22;19938;-90
2021/12/27 11:53:26;;;;;;;;;;;13.90;99.90;;;;;;6306035;22;19911;-91
2021/12/27 11:55:51;;;;;;;;;;;13.90;99.90;;;;;;6304854;22;20393;-90
2021/12/27 11:58:29;;;;;;;;;;;13.80;99.90;;;;;;6304658;22;19948;-92
2021/12/27 12:00:55;;;;;;;;;;;13.90;99.90;;;;;;6304199;22;19907;-90
2021/12/27 12:03:34;;;;;;;;;;;13.80;99.90;;;;;;6304294;22;20222;-93
2021/12/27 12:05:59;;;;;;;;;;;13.90;99.90;;;;;;6304202;22;19914;-92
2021/12/27 12:08:28;;;;;;;;;;;13.90;99.90;;;;;;6304892;22;19903;-92
2021/12/27 12:11:06;;;;;;;;;;;13.80;99.90;;;;;;6305211;22;19926;-92
2021/12/27 12:14:21;;;;;;;;;;;13.70;99.90;;;;;;6312358;22;19922;-93
2021/12/27 12:17:04;;;;;;;;;;;;;;;;;;;;;
2021/12/27 12:26:29;;;;;;;;;;;;;;;;;;;;;
2021/12/27 12:29:02;;;;;;;;;;;13.60;99.90;;;;;;6126700;23;19944;-92
2021/12/27 12:31:37;;;;;;;;;;;13.50;99.90;;;;;;6213069;23;20237;-91
2021/12/27 12:34:13;;;;;;;;;;;13.60;99.90;;;;;;6298895;22;19914;-91
2021/12/27 12:43:35;;;;;;;;;;;13.70;99.90;;;;;;6041711;23;20401;-92
2021/12/27 12:46:13;;;;;;;;;;;13.70;99.90;;;;;;6211075;23;20323;-93
2021/12/27 13:07:34;;;;;;;;;;;;;;;;;;;;;
2021/12/27 13:10:23;;;;;;;;;;;14.20;99.90;;;;;;6066856;23;19949;-91
2021/12/27 13:13:30;;;;;;;;;;;;;;;;;;;;;
2021/12/27 13:16:34;;;;;;;;;;;;;;;;;;;;;
2021/12/27 13:19:10;;;;;;;;;;;14.20;99.90;;;;;;6008008;23;20410;-92
2021/12/27 13:22:11;;;;;;;;;;;14.10;99.90;;;;;;6042377;23;19905;-92
2021/12/27 13:27:59;;;;;;;;;;;13.90;99.90;;;;;;6106350;23;19988;-93
2021/12/27 13:31:04;;;;;;;;;;;13.90;99.90;;;;;;6132526;23;19983;-93
2021/12/27 14:15:07;;;;;;;;;;;;;;;;;;;;;
2021/12/27 14:24:09;;;;;;;;;;;14.00;99.90;;;;;;5928614;24;19922;-95
2021/12/27 14:51:24;;;;;;;;;;;;;;;;;;;;;
2021/12/27 14:54:06;;;;;;;;;;;13.70;99.90;;;;;;5991358;23;19907;-92
2021/12/27 14:56:31;;;;;;;;;;;13.70;99.90;;;;;;6002954;23;19953;-92
2021/12/27 14:59:04;;;;;;;;;;;13.70;99.90;;;;;;6091968;23;20283;-94
2021/12/27 15:01:32;;;;;;;;;;;13.70;99.90;;;;;;6311405;22;19906;-93
2021/12/27 15:04:29;;;;;;;;;;;;;;;;;;;;;
2021/12/27 15:07:00;;;;;;;;;;;13.70;99.90;;;;;;6313102;22;19919;-93
2021/12/27 15:09:32;;;;;;;;;;;13.70;99.90;;;;;;6310292;22;19978;-91
2021/12/27 15:12:00;;;;;;;;;;;13.70;99.90;;;;;;6313696;22;19911;-93
2021/12/27 15:14:26;;;;;;;;;;;13.60;99.90;;;;;;6309341;22;20029;-92
2021/12/27 15:17:33;;;;;;;;;;;13.70;99.90;;;;;;6311336;22;20357;-94
2021/12/27 15:20:38;;;;;;;;;;;;;;;;;;;;;
2021/12/27 15:23:13;;;;;;;;;;;13.50;99.90;;;;;;6308982;22;19919;-95
2021/12/27 15:25:41;;;;;;;;;;;13.60;99.90;;;;;;6315220;22;19903;-94
2021/12/27 15:28:15;;;;;;;;;;;13.60;99.90;;;;;;6316077;22;20321;-95
2021/12/27 15:30:58;;;;;;;;;;;13.60;99.90;;;;;;6321027;22;19903;-94
2021/12/27 15:33:51;;;;;;;;;;;13.60;99.90;;;;;;6319390;22;19994;-95
2021/12/27 15:36:26;;;;;;;;;;;13.50;99.90;;;;;;6313332;22;20151;-93
2021/12/27 15:38:59;;;;;;;;;;;13.50;99.90;;;;;;6313821;22;19907;-93
2021/12/27 15:41:28;;;;;;;;;;;13.50;99.90;;;;;;6313594;22;19903;-94
2021/12/27 15:43:54;;;;;;;;;;;13.50;99.90;;;;;;6310583;22;19934;-93
2021/12/27 15:46:52;;;;;;;;;;;;;;;;;;;;;
2021/12/27 15:49:24;;;;;;;;;;;13.50;99.90;;;;;;6298686;22;19950;-93
2021/12/27 15:52:19;;;;;;;;;;;13.50;99.90;;;;;;6310927;22;19922;-93
2021/12/27 15:57:33;;;;;;;;;;;13.40;99.90;;;;;;6213732;23;19904;-92
2021/12/27 16:03:37;;;;;;;;;;;13.50;99.90;;;;;;6220425;23;20236;-94
2021/12/27 16:06:14;;;;;;;;;;;;;;;;;;;;;
2021/12/27 16:11:50;;;;;;;;;;;13.30;99.90;;;;;;6208333;23;19904;-92
2021/12/27 16:14:35;;;;;;;;;;;13.30;99.90;;;;;;6277583;22;19910;-92
2021/12/27 16:17:01;;;;;;;;;;;13.30;99.90;;;;;;6333956;22;19952;-91
2021/12/27 16:19:26;;;;;;;;;;;13.30;99.90;;;;;;6334275;22;19891;-91
2021/12/27 16:21:56;;;;;;;;;;;13.40;99.90;;;;;;6334254;22;19897;-90
2021/12/27 16:24:25;;;;;;;;;;;13.40;99.90;;;;;;6331218;22;19931;-93
2021/12/27 16:29:56;;;;;;;;;;;13.40;99.90;;;;;;6332883;22;19898;-94
2021/12/27 16:32:21;;;;;;;;;;;13.40;99.90;;;;;;6307916;22;20354;-92
2021/12/27 16:34:49;;;;;;;;;;;13.40;99.90;;;;;;6306266;22;19903;-92
2021/12/27 16:37:17;;;;;;;;;;;13.40;99.90;;;;;;6317341;22;19903;-91
2021/12/27 16:39:46;;;;;;;;;;;13.40;99.90;;;;;;6314647;22;19903;-93
2021/12/27 16:42:12;;;;;;;;;;;13.40;99.90;;;;;;6325520;22;19963;-94
2021/12/27 16:44:58;;;;;;;;;;;13.40;99.90;;;;;;6291901;22;19911;-92
2021/12/27 16:47:28;;;;;;;;;;;13.50;99.90;;;;;;6291825;22;19923;-92
2021/12/27 16:50:16;;;;;;;;;;;13.50;99.90;;;;;;6271331;22;19926;-90
2021/12/27 16:52:46;;;;;;;;;;;13.40;99.90;;;;;;6271446;22;19931;-95
2021/12/27 16:58:43;;;;;;;;;;;;;;;;;;;;;
2021/12/27 17:01:19;;;;;;;;;;;13.40;99.90;;;;;;6134497;23;19905;-92
2021/12/27 17:03:47;;;;;;;;;;;13.40;99.90;;;;;;6218301;22;19904;-90
2021/12/27 17:06:41;;;;;;;;;;;13.30;99.90;;;;;;6258402;22;19903;-93
2021/12/27 17:09:10;;;;;;;;;;;13.40;99.90;;;;;;6263844;22;19903;-95
2021/12/27 17:11:37;;;;;;;;;;;13.40;99.90;;;;;;6276693;22;20453;-93
2021/12/27 17:14:06;;;;;;;;;;;13.30;99.90;;;;;;6251648;22;19910;-93
2021/12/27 17:16:32;;;;;;;;;;;13.30;99.90;;;;;;6295506;22;19911;-93
2021/12/27 17:18:58;;;;;;;;;;;13.40;99.90;;;;;;6309133;22;19903;-93
2021/12/27 17:21:29;;;;;;;;;;;13.40;99.90;;;;;;6290471;22;19914;-94
2021/12/27 17:23:59;;;;;;;;;;;13.40;99.90;;;;;;6318018;22;20390;-91
2021/12/27 17:26:25;;;;;;;;;;;13.30;99.90;;;;;;6313706;22;20341;-91
2021/12/27 17:28:55;;;;;;;;;;;13.20;99.90;;;;;;6313341;22;19903;-92
2021/12/27 17:31:42;;;;;;;;;;;13.30;99.90;;;;;;6314418;22;19903;-93
2021/12/27 17:34:08;;;;;;;;;;;13.20;99.90;;;;;;6306484;22;19985;-90
2021/12/27 17:36:43;;;;;;;;;;;13.10;99.90;;;;;;6314076;22;19910;-94